createdAt,value
2022-11-24T00:01:13.441Z,99408.09
2022-11-24T00:03:41.488Z,99408.28
2022-11-24T00:06:11.181Z,99411.50
2022-11-24T00:08:40.510Z,99410.75
2022-11-24T00:11:09.577Z,99417.00
2022-11-24T00:13:39.095Z,99416.09
2022-11-24T00:16:09.432Z,99410.88
2022-11-24T00:18:37.679Z,99414.81
2022-11-24T00:21:05.330Z,99422.16
2022-11-24T00:23:33.458Z,99428.56
2022-11-24T00:26:05.777Z,99416.81
2022-11-24T00:28:33.951Z,99415.06
2022-11-24T00:31:05.078Z,99422.66
2022-11-24T00:33:32.876Z,99425.66
2022-11-24T00:36:00.833Z,99431.06
2022-11-24T00:38:31.060Z,99423.13
2022-11-24T00:40:58.497Z,99420.00
2022-11-24T00:43:26.347Z,99429.63
2022-11-24T00:45:53.715Z,99431.84
2022-11-24T00:48:23.255Z,99429.94
2022-11-24T00:50:56.739Z,99425.31
2022-11-24T00:53:24.655Z,99426.78
2022-11-24T00:55:52.146Z,99427.31
2022-11-24T00:58:20.174Z,99426.91
2022-11-24T01:00:47.368Z,99428.44
2022-11-24T01:03:15.387Z,99432.25
2022-11-24T01:05:44.072Z,99430.75
2022-11-24T01:08:12.345Z,99434.44
2022-11-24T01:10:39.696Z,99428.94
2022-11-24T01:13:07.384Z,99439.38
2022-11-24T01:15:35.578Z,99431.50
2022-11-24T01:18:04.014Z,99428.22
2022-11-24T01:20:31.632Z,99434.00
2022-11-24T01:23:00.810Z,99429.72
2022-11-24T01:25:28.103Z,99432.81
2022-11-24T01:27:55.778Z,99424.25
2022-11-24T01:30:23.089Z,99434.75
2022-11-24T01:32:50.736Z,99431.72
2022-11-24T01:35:18.136Z,99442.94
2022-11-24T01:37:45.858Z,99438.19
2022-11-24T01:40:14.638Z,99442.81
2022-11-24T01:42:48.395Z,99437.47
2022-11-24T01:45:38.104Z,99436.81
2022-11-24T01:48:11.451Z,99435.66
2022-11-24T01:50:39.402Z,99432.97
2022-11-24T01:53:07.858Z,99429.03
2022-11-24T01:55:39.389Z,99435.31
2022-11-24T01:58:11.244Z,99433.66
2022-11-24T02:00:41.626Z,99426.41
2022-11-24T02:03:11.849Z,99418.94
2022-11-24T02:05:44.001Z,99427.63
2022-11-24T02:08:17.871Z,99432.09
2022-11-24T02:10:47.391Z,99426.69
2022-11-24T02:13:15.516Z,99422.94
2022-11-24T02:15:42.955Z,99427.84
2022-11-24T02:18:10.823Z,99429.78
2022-11-24T02:20:38.363Z,99418.59
2022-11-24T02:23:13.364Z,99425.69
2022-11-24T02:25:50.454Z,99424.63
2022-11-24T02:28:22.489Z,99420.78
2022-11-24T02:30:50.615Z,99420.66
2022-11-24T02:33:20.374Z,99430.75
2022-11-24T02:35:47.708Z,99430.75
2022-11-24T02:38:15.497Z,99435.47
2022-11-24T02:40:46.807Z,99439.97
2022-11-24T02:43:19.859Z,99445.75
2022-11-24T02:45:48.627Z,99438.88
2022-11-24T02:48:16.580Z,99445.03
2022-11-24T02:50:43.896Z,99430.53
2022-11-24T02:53:11.607Z,99441.63
2022-11-24T02:55:38.970Z,99445.09
2022-11-24T02:58:06.822Z,99446.09
2022-11-24T03:00:34.149Z,99449.53
2022-11-24T03:03:03.978Z,99445.66
2022-11-24T03:05:31.275Z,99449.13
2022-11-24T03:07:59.058Z,99439.44
2022-11-24T03:10:26.267Z,99440.38
2022-11-24T03:12:54.892Z,99446.19
2022-11-24T03:15:22.381Z,99446.00
2022-11-24T03:17:50.342Z,99449.53
2022-11-24T03:20:19.300Z,99452.41
2022-11-24T03:22:47.043Z,99445.94
2022-11-24T03:25:14.418Z,99456.00
2022-11-24T03:27:42.192Z,99450.25
2022-11-24T03:30:10.891Z,99454.13
2022-11-24T03:32:38.592Z,99451.31
2022-11-24T03:35:06.670Z,99456.09
2022-11-24T03:37:35.781Z,99457.38
2022-11-24T03:40:03.314Z,99462.06
2022-11-24T03:42:31.045Z,99463.38
2022-11-24T03:45:01.642Z,99465.81
2022-11-24T03:47:39.312Z,99463.31
2022-11-24T03:50:06.960Z,99459.50
2022-11-24T03:52:36.071Z,99456.88
2022-11-24T03:55:03.441Z,99456.50
2022-11-24T03:57:31.147Z,99455.84
2022-11-24T03:59:58.374Z,99461.91
2022-11-24T04:02:26.055Z,99464.06
2022-11-24T04:04:53.364Z,99463.56
2022-11-24T04:07:21.039Z,99466.25
2022-11-24T04:09:49.853Z,99470.06
2022-11-24T04:12:17.571Z,99461.78
2022-11-24T04:14:44.869Z,99467.66
2022-11-24T04:17:12.689Z,99464.44
2022-11-24T04:19:39.982Z,99460.25
2022-11-24T04:22:07.705Z,99460.44
2022-11-24T04:24:35.345Z,99468.03
2022-11-24T04:27:04.600Z,99471.00
2022-11-24T04:29:32.022Z,99474.13
2022-11-24T04:31:59.759Z,99472.31
2022-11-24T04:34:27.138Z,99477.44
2022-11-24T04:36:54.965Z,99485.03
2022-11-24T04:39:26.280Z,99487.09
2022-11-24T04:41:54.669Z,99492.00
2022-11-24T04:44:23.411Z,99493.75
2022-11-24T04:46:51.241Z,99496.53
2022-11-24T04:49:18.991Z,99502.41
2022-11-24T04:51:47.043Z,99511.44
2022-11-24T04:54:15.138Z,99509.78
2022-11-24T04:56:43.531Z,99501.13
2022-11-24T04:59:13.686Z,99510.09
2022-11-24T05:01:43.257Z,99501.38
2022-11-24T05:04:11.336Z,99510.44
2022-11-24T05:06:39.362Z,99515.41
2022-11-24T05:09:08.076Z,99517.59
2022-11-24T05:11:35.685Z,99516.88
2022-11-24T05:14:03.044Z,99514.59
2022-11-24T05:16:30.840Z,99523.84
2022-11-24T05:18:59.658Z,99521.09
2022-11-24T05:21:28.431Z,99519.31
2022-11-24T05:23:55.746Z,99529.28
2022-11-24T05:26:23.480Z,99527.69
2022-11-24T05:28:50.753Z,99534.78
2022-11-24T05:31:18.703Z,99529.50
2022-11-24T05:33:46.081Z,99532.41
2022-11-24T05:36:15.281Z,99535.53
2022-11-24T05:38:42.609Z,99542.72
2022-11-24T05:41:10.347Z,99538.47
2022-11-24T05:43:37.607Z,99545.81
2022-11-24T05:46:05.439Z,99549.69
2022-11-24T05:48:32.771Z,99553.47
2022-11-24T05:51:03.116Z,99551.94
2022-11-24T05:53:33.735Z,99548.00
2022-11-24T05:56:03.457Z,99554.13
2022-11-24T05:58:30.793Z,99553.13
2022-11-24T06:00:58.440Z,99552.56
2022-11-24T06:03:25.713Z,99562.94
2022-11-24T06:05:53.445Z,99571.97
2022-11-24T06:08:20.610Z,99562.66
2022-11-24T06:10:49.709Z,99579.50
2022-11-24T06:13:16.999Z,99584.16
2022-11-24T06:15:44.811Z,99584.41
2022-11-24T06:18:12.116Z,99591.50
2022-11-24T06:20:39.711Z,99603.03
2022-11-24T06:23:06.966Z,99614.41
2022-11-24T06:25:34.537Z,99615.66
2022-11-24T06:28:05.017Z,99614.97
2022-11-24T06:30:32.767Z,99624.78
2022-11-24T06:33:00.452Z,99630.19
2022-11-24T06:35:28.133Z,99636.31
2022-11-24T06:37:55.463Z,99629.22
2022-11-24T06:40:23.099Z,99628.88
2022-11-24T06:42:50.841Z,99631.91
2022-11-24T06:45:20.026Z,99648.13
2022-11-24T06:47:47.239Z,99638.03
2022-11-24T06:50:15.194Z,99639.66
2022-11-24T06:52:42.662Z,99642.31
2022-11-24T06:55:10.416Z,99641.13
2022-11-24T06:57:37.795Z,99646.25
2022-11-24T07:00:07.150Z,99647.88
2022-11-24T07:02:39.818Z,99649.75
2022-11-24T07:05:10.282Z,99642.63
2022-11-24T07:07:37.694Z,99652.31
2022-11-24T07:10:06.595Z,99657.22
2022-11-24T07:12:34.627Z,99656.72
2022-11-24T07:15:02.324Z,99668.66
2022-11-24T07:17:29.794Z,99676.72
2022-11-24T07:19:59.006Z,99674.13
2022-11-24T07:22:26.307Z,99670.44
2022-11-24T07:24:54.118Z,99675.31
2022-11-24T07:27:23.551Z,99669.22
2022-11-24T07:29:51.129Z,99678.47
2022-11-24T07:32:18.447Z,99681.13
2022-11-24T07:34:46.289Z,99685.19
2022-11-24T07:37:15.284Z,99684.69
2022-11-24T07:39:42.986Z,99676.72
2022-11-24T07:42:10.211Z,99683.09
2022-11-24T07:44:37.811Z,99686.88
2022-11-24T07:47:05.186Z,99682.47
2022-11-24T07:49:32.911Z,99680.28
2022-11-24T07:52:00.184Z,99682.09
2022-11-24T07:54:29.317Z,99680.06
2022-11-24T07:56:56.961Z,99678.41
2022-11-24T07:59:24.637Z,99677.44
2022-11-24T08:01:52.041Z,99679.50
2022-11-24T08:04:19.936Z,99679.88
2022-11-24T08:06:47.741Z,99684.69
2022-11-24T08:09:15.643Z,99690.41
2022-11-24T08:11:44.223Z,99698.06
2022-11-24T08:14:11.840Z,99691.13
2022-11-24T08:16:39.208Z,99697.53
2022-11-24T08:19:06.828Z,99702.56
2022-11-24T08:21:34.042Z,99698.59
2022-11-24T08:24:01.796Z,99704.41
2022-11-24T08:26:29.260Z,99705.56
2022-11-24T08:28:59.628Z,99707.69
2022-11-24T08:31:28.598Z,99713.44
2022-11-24T08:33:56.225Z,99715.63
2022-11-24T08:36:23.543Z,99714.72
2022-11-24T08:38:55.321Z,99709.06
2022-11-24T08:41:23.327Z,99723.50
2022-11-24T08:43:51.420Z,99717.44
2022-11-24T08:46:20.598Z,99720.53
2022-11-24T08:48:49.237Z,99720.84
2022-11-24T08:51:18.388Z,99718.75
2022-11-24T08:53:46.708Z,99726.59
2022-11-24T08:56:14.632Z,99723.44
2022-11-24T08:58:42.479Z,99723.53
2022-11-24T09:01:11.378Z,99732.22
2022-11-24T09:03:46.353Z,99730.47
2022-11-24T09:06:16.418Z,99729.69
2022-11-24T09:08:44.328Z,99728.09
2022-11-24T09:11:13.772Z,99732.66
2022-11-24T09:13:41.511Z,99732.38
2022-11-24T09:16:11.293Z,99734.16
2022-11-24T09:18:40.904Z,99738.31
2022-11-24T09:21:09.577Z,99737.94
2022-11-24T09:23:37.749Z,99741.56
2022-11-24T09:26:06.331Z,99737.94
2022-11-24T09:28:34.124Z,99739.75
2022-11-24T09:31:02.022Z,99740.13
2022-11-24T09:33:29.872Z,99747.56
2022-11-24T09:35:58.617Z,99740.72
2022-11-24T09:38:26.831Z,99743.94
2022-11-24T09:40:57.816Z,99742.16
2022-11-24T09:43:33.289Z,99744.78
2022-11-24T09:46:08.993Z,99743.94
2022-11-24T09:48:40.256Z,99741.53
2022-11-24T09:51:12.374Z,99746.44
2022-11-24T09:53:46.018Z,99746.13
2022-11-24T09:56:20.642Z,99745.06
2022-11-24T09:58:50.336Z,99745.78
2022-11-24T10:01:19.811Z,99740.91
2022-11-24T10:03:50.186Z,99745.28
2022-11-24T10:06:27.492Z,99743.34
2022-11-24T10:09:10.676Z,99741.56
2022-11-24T10:11:43.078Z,99740.22
2022-11-24T10:14:24.359Z,99742.66
2022-11-24T10:16:55.873Z,99741.19
2022-11-24T10:19:37.548Z,99740.69
2022-11-24T10:22:23.706Z,99743.19
2022-11-24T10:25:09.271Z,99751.47
2022-11-24T10:27:41.864Z,99747.00
2022-11-24T10:30:15.440Z,99748.47
2022-11-24T10:32:46.629Z,99750.88
2022-11-24T10:35:18.147Z,99757.41
2022-11-24T10:37:54.514Z,99752.53
2022-11-24T10:43:19.150Z,99746.81
2022-11-24T10:45:47.445Z,99746.69
2022-11-24T10:48:20.671Z,99741.53
2022-11-24T10:50:48.414Z,99741.50
2022-11-24T10:53:23.205Z,99748.78
2022-11-24T10:56:02.484Z,99746.84
2022-11-24T10:58:36.054Z,99745.69
2022-11-24T11:01:20.845Z,99749.19
2022-11-24T11:03:50.165Z,99754.66
2022-11-24T11:06:22.609Z,99751.28
2022-11-24T11:09:16.654Z,99745.91
2022-11-24T11:11:44.338Z,99752.81
2022-11-24T11:14:11.741Z,99749.53
2022-11-24T11:16:41.336Z,99752.72
2022-11-24T11:19:48.493Z,99751.31
2022-11-24T11:22:24.979Z,99747.84
2022-11-24T11:25:14.118Z,99750.59
2022-11-24T11:27:42.545Z,99747.19
2022-11-24T11:36:10.499Z,99740.56
2022-11-24T11:38:40.485Z,99733.97
2022-11-24T11:41:19.220Z,99742.72
2022-11-24T11:43:50.553Z,99740.69
2022-11-24T11:46:17.981Z,99741.06
2022-11-24T11:48:47.663Z,99738.88
2022-11-24T11:51:33.659Z,99755.31
2022-11-24T11:54:08.317Z,99753.97
2022-11-24T11:56:41.513Z,99757.47
2022-11-24T11:59:39.310Z,99753.59
2022-11-24T12:02:35.118Z,99755.38
2022-11-24T12:05:11.137Z,99748.78
2022-11-24T12:08:09.201Z,99748.56
2022-11-24T12:10:45.743Z,99740.06
2022-11-24T12:13:45.766Z,99746.50
2022-11-24T12:16:30.341Z,99744.97
2022-11-24T12:19:15.095Z,99744.28
2022-11-24T12:21:52.243Z,99740.50
2022-11-24T12:24:28.500Z,99742.25
2022-11-24T12:27:00.025Z,99749.09
2022-11-24T12:29:57.201Z,99749.81
2022-11-24T12:32:40.904Z,99765.66
2022-11-24T12:35:18.932Z,99760.50
2022-11-24T12:37:56.477Z,99765.56
2022-11-24T12:40:35.519Z,99770.53
2022-11-24T12:43:11.620Z,99770.59
2022-11-24T12:45:49.905Z,99769.38
2022-11-24T12:48:29.164Z,99755.97
2022-11-24T12:50:58.410Z,99762.63
2022-11-24T12:53:29.315Z,99772.72
2022-11-24T12:56:04.605Z,99767.06
2022-11-24T12:58:40.425Z,99771.97
2022-11-24T13:01:17.841Z,99774.41
2022-11-24T13:04:00.681Z,99776.34
2022-11-24T13:06:35.256Z,99778.69
2022-11-24T13:09:08.527Z,99774.06
2022-11-24T13:11:40.134Z,99771.03
2022-11-24T13:14:14.876Z,99772.34
2022-11-24T13:19:46.954Z,99776.09
2022-11-24T13:22:17.047Z,99771.47
2022-11-24T13:24:45.073Z,99784.19
2022-11-24T13:27:39.908Z,99772.06
2022-11-24T13:30:50.173Z,99785.28
2022-11-24T13:33:34.232Z,99783.97
2022-11-24T13:36:31.683Z,99776.84
2022-11-24T13:39:00.097Z,99780.28
2022-11-24T13:42:07.607Z,99785.13
2022-11-24T13:44:49.567Z,99788.63
2022-11-24T13:47:41.280Z,99786.94
2022-11-24T13:50:14.570Z,99787.84
2022-11-24T13:52:50.719Z,99783.28
2022-11-24T13:55:23.620Z,99791.53
2022-11-24T13:57:53.668Z,99791.53
2022-11-24T14:00:24.320Z,99804.09
2022-11-24T14:02:55.137Z,99799.19
2022-11-24T14:05:33.692Z,99809.44
2022-11-24T14:08:04.943Z,99803.72
2022-11-24T14:10:35.737Z,99811.16
2022-11-24T14:13:26.988Z,99822.38
2022-11-24T14:16:06.037Z,99826.56
2022-11-24T14:18:35.517Z,99820.97
2022-11-24T14:21:22.341Z,99813.44
2022-11-24T14:23:54.503Z,99810.47
2022-11-24T14:26:24.328Z,99813.66
2022-11-24T14:29:05.025Z,99815.38
2022-11-24T14:31:32.385Z,99824.09
2022-11-24T14:34:25.084Z,99820.72
2022-11-24T14:36:53.625Z,99825.19
2022-11-24T14:39:24.269Z,99829.06
2022-11-24T14:41:53.520Z,99832.44
2022-11-24T14:44:23.825Z,99833.16
2022-11-24T14:47:00.543Z,99830.44
2022-11-24T14:49:28.760Z,99833.28
2022-11-24T14:51:58.437Z,99838.41
2022-11-24T14:54:28.640Z,99844.72
2022-11-24T14:56:58.859Z,99835.31
2022-11-24T14:59:28.382Z,99835.28
2022-11-24T15:01:56.201Z,99839.59
2022-11-24T15:07:18.712Z,99834.47
2022-11-24T15:09:52.544Z,99848.50
2022-11-24T15:12:26.349Z,99848.78
2022-11-24T15:14:56.586Z,99845.50
2022-11-24T15:17:27.100Z,99849.13
2022-11-24T15:19:58.510Z,99844.63
2022-11-24T15:22:37.971Z,99852.63
2022-11-24T15:25:34.229Z,99862.47
2022-11-24T15:28:01.459Z,99873.69
2022-11-24T15:30:30.242Z,99872.72
2022-11-24T15:32:58.996Z,99878.75
2022-11-24T15:35:31.050Z,99875.25
2022-11-24T15:37:58.726Z,99879.47
2022-11-24T15:40:26.310Z,99888.28
2022-11-24T15:42:57.900Z,99885.88
2022-11-24T15:45:27.192Z,99892.19
2022-11-24T15:47:54.485Z,99890.50
2022-11-24T15:50:22.094Z,99905.50
2022-11-24T15:52:49.597Z,99897.91
2022-11-24T15:55:19.464Z,99899.75
2022-11-24T15:57:47.378Z,99909.16
2022-11-24T16:00:19.792Z,99909.56
2022-11-24T16:02:47.533Z,99908.88
2022-11-24T16:05:17.633Z,99906.34
2022-11-24T16:07:45.233Z,99905.91
2022-11-24T16:10:21.853Z,99912.09
2022-11-24T16:12:49.127Z,99914.34
2022-11-24T16:15:18.292Z,99911.81
2022-11-24T16:17:48.493Z,99908.88
2022-11-24T16:20:16.426Z,99913.34
2022-11-24T16:22:44.154Z,99918.13
2022-11-24T16:25:12.651Z,99917.41
2022-11-24T16:27:39.981Z,99926.25
2022-11-24T16:30:09.359Z,99918.41
2022-11-24T16:32:38.092Z,99916.44
2022-11-24T16:35:09.285Z,99922.63
2022-11-24T16:37:36.633Z,99920.09
2022-11-24T16:40:06.081Z,99922.59
2022-11-24T16:42:33.541Z,99928.22
2022-11-24T16:45:01.288Z,99931.03
2022-11-24T16:47:28.756Z,99926.81
2022-11-24T16:49:58.014Z,99932.13
2022-11-24T16:52:25.367Z,99929.44
2022-11-24T16:54:53.273Z,99937.44
2022-11-24T16:57:20.590Z,99943.19
2022-11-24T16:59:48.406Z,99936.19
2022-11-24T17:02:15.894Z,99944.41
2022-11-24T17:04:43.639Z,99944.72
2022-11-24T17:07:12.641Z,99952.81
2022-11-24T17:09:40.967Z,99950.69
2022-11-24T17:12:08.421Z,99954.47
2022-11-24T17:14:36.466Z,99961.91
2022-11-24T17:17:04.195Z,99967.09
2022-11-24T17:19:32.020Z,99963.44
2022-11-24T17:21:59.376Z,99967.06
2022-11-24T17:24:28.501Z,99973.28
2022-11-24T17:26:55.944Z,99966.75
2022-11-24T17:29:23.604Z,99980.44
2022-11-24T17:31:50.952Z,99972.31
2022-11-24T17:34:19.191Z,99976.06
2022-11-24T17:36:46.661Z,99986.19
2022-11-24T17:39:14.443Z,99986.03
2022-11-24T17:41:43.312Z,99982.50
2022-11-24T17:44:14.108Z,99983.91
2022-11-24T17:46:43.699Z,99985.72
2022-11-24T17:49:15.471Z,99992.13
2022-11-24T17:51:43.618Z,99984.75
2022-11-24T17:54:39.103Z,99983.09
2022-11-24T17:57:01.457Z,99993.88
2022-11-24T17:59:29.454Z,99994.97
2022-11-24T18:01:56.776Z,99996.97
2022-11-24T18:04:24.486Z,99999.50
2022-11-24T18:06:51.913Z,99993.13
2022-11-24T18:09:19.896Z,100000.56
2022-11-24T18:11:47.222Z,100000.75
2022-11-24T18:14:16.564Z,100005.69
2022-11-24T18:16:44.100Z,100007.09
2022-11-24T18:19:12.188Z,100005.78
2022-11-24T18:21:41.057Z,100010.56
2022-11-24T18:24:10.543Z,100011.19
2022-11-24T18:26:38.886Z,100007.09
2022-11-24T18:29:07.228Z,100011.72
2022-11-24T18:31:36.706Z,100013.50
2022-11-24T18:34:05.940Z,100011.69
2022-11-24T18:36:33.966Z,100008.97
2022-11-24T18:39:02.293Z,100010.66
2022-11-24T18:41:29.869Z,100013.34
2022-11-24T18:43:57.695Z,100008.84
2022-11-24T18:46:25.063Z,100008.13
2022-11-24T18:48:55.205Z,100013.03
2022-11-24T18:51:22.507Z,100008.97
2022-11-24T18:53:52.795Z,100007.53
2022-11-24T18:56:20.528Z,100006.28
2022-11-24T18:58:48.372Z,100005.84
2022-11-24T19:01:17.506Z,100002.78
2022-11-24T19:03:48.986Z,100008.78
2022-11-24T19:06:21.947Z,100010.34
2022-11-24T19:08:53.592Z,100015.28
2022-11-24T19:11:23.587Z,100018.41
2022-11-24T19:13:52.156Z,100014.16
2022-11-24T19:16:20.663Z,100016.53
2022-11-24T19:18:53.331Z,100014.28
2022-11-24T19:21:23.262Z,100019.75
2022-11-24T19:23:51.145Z,100024.94
2022-11-24T19:26:18.952Z,100027.22
2022-11-24T19:28:47.191Z,100033.16
2022-11-24T19:31:16.224Z,100030.34
2022-11-24T19:33:44.710Z,100034.81
2022-11-24T19:36:14.901Z,100040.34
2022-11-24T19:38:50.070Z,100040.22
2022-11-24T19:41:18.318Z,100048.78
2022-11-24T19:43:46.561Z,100049.06
2022-11-24T19:46:16.153Z,100052.19
2022-11-24T19:48:45.944Z,100053.75
2022-11-24T19:51:15.401Z,100051.59
2022-11-24T19:53:45.111Z,100046.78
2022-11-24T19:56:13.964Z,100057.19
2022-11-24T19:58:42.465Z,100059.41
2022-11-24T20:01:12.374Z,100058.75
2022-11-24T20:03:41.511Z,100059.91
2022-11-24T20:06:10.163Z,100065.75
2022-11-24T20:08:38.914Z,100070.69
2022-11-24T20:11:10.217Z,100069.16
2022-11-24T20:13:39.870Z,100064.63
2022-11-24T20:16:09.593Z,100078.34
2022-11-24T20:18:41.961Z,100078.91
2022-11-24T20:21:11.896Z,100077.41
2022-11-24T20:23:40.827Z,100084.31
2022-11-24T20:26:12.327Z,100078.66
2022-11-24T20:28:41.518Z,100080.81
2022-11-24T20:31:11.410Z,100084.94
2022-11-24T20:33:39.922Z,100087.84
2022-11-24T20:36:09.587Z,100087.88
2022-11-24T20:38:38.975Z,100094.31
2022-11-24T20:41:09.998Z,100086.59
2022-11-24T20:43:38.223Z,100084.47
2022-11-24T20:46:08.182Z,100090.91
2022-11-24T20:48:37.257Z,100088.84
2022-11-24T20:51:05.405Z,100093.25
2022-11-24T20:53:33.243Z,100100.09
2022-11-24T20:56:05.559Z,100102.81
2022-11-24T20:58:36.116Z,100111.63
2022-11-24T21:01:04.666Z,100106.31
2022-11-24T21:03:32.835Z,100105.28
2022-11-24T21:06:00.564Z,100112.59
2022-11-24T21:08:28.382Z,100117.06
2022-11-24T21:10:57.267Z,100113.88
2022-11-24T21:13:25.918Z,100110.97
2022-11-24T21:15:55.502Z,100109.72
2022-11-24T21:18:23.171Z,100120.69
2022-11-24T21:20:50.360Z,100117.22
2022-11-24T21:23:18.075Z,100117.88
2022-11-24T21:25:45.366Z,100118.00
2022-11-24T21:28:13.085Z,100117.31
2022-11-24T21:30:40.418Z,100118.56
2022-11-24T21:33:09.581Z,100126.97
2022-11-24T21:35:37.275Z,100120.72
2022-11-24T21:38:05.269Z,100126.72
2022-11-24T21:40:32.536Z,100127.69
2022-11-24T21:43:00.329Z,100124.59
2022-11-24T21:45:27.695Z,100134.31
2022-11-24T21:47:56.185Z,100124.91
2022-11-24T21:50:25.048Z,100124.34
2022-11-24T21:52:52.739Z,100123.78
2022-11-24T21:55:20.012Z,100133.78
2022-11-24T21:57:48.121Z,100134.81
2022-11-24T22:00:16.383Z,100141.00
2022-11-24T22:02:44.267Z,100137.19
2022-11-24T22:05:11.668Z,100145.03
2022-11-24T22:07:40.765Z,100137.53
2022-11-24T22:10:09.373Z,100143.56
2022-11-24T22:12:37.201Z,100142.63
2022-11-24T22:15:05.070Z,100139.50
2022-11-24T22:17:32.978Z,100142.63
2022-11-24T22:20:00.327Z,100140.38
2022-11-24T22:22:28.061Z,100144.72
2022-11-24T22:24:56.613Z,100139.84
2022-11-24T22:27:24.351Z,100148.94
2022-11-24T22:29:54.232Z,100150.09
2022-11-24T22:32:22.058Z,100156.41
2022-11-24T22:34:49.953Z,100143.34
2022-11-24T22:37:18.058Z,100153.44
2022-11-24T22:39:45.550Z,100150.38
2022-11-24T22:42:15.263Z,100152.88
2022-11-24T22:44:43.155Z,100151.34
2022-11-24T22:47:12.590Z,100149.00
2022-11-24T22:49:39.959Z,100146.44
2022-11-24T22:52:07.568Z,100142.38
2022-11-24T22:54:35.026Z,100149.53
2022-11-24T22:57:02.942Z,100148.44
2022-11-24T22:59:31.589Z,100153.31
2022-11-24T23:01:59.292Z,100155.00
2022-11-24T23:04:26.754Z,100156.56
2022-11-24T23:06:54.546Z,100151.63
2022-11-24T23:09:21.962Z,100151.19
2022-11-24T23:11:49.639Z,100145.63
2022-11-24T23:14:17.113Z,100160.09
2022-11-24T23:16:46.325Z,100155.47
2022-11-24T23:19:13.697Z,100158.72
2022-11-24T23:21:41.312Z,100157.03
2022-11-24T23:24:10.221Z,100154.31
2022-11-24T23:26:40.748Z,100149.66
2022-11-24T23:29:09.703Z,100156.63
2022-11-24T23:31:40.663Z,100164.53
2022-11-24T23:34:09.962Z,100163.44
2022-11-24T23:36:38.312Z,100163.44
2022-11-24T23:39:13.716Z,100155.34
2022-11-24T23:41:41.499Z,100163.19
2022-11-24T23:44:08.989Z,100170.91
2022-11-24T23:46:36.878Z,100169.84
2022-11-24T23:49:04.138Z,100168.09
2022-11-24T23:51:34.286Z,100168.34
2022-11-24T23:54:01.630Z,100173.63
2022-11-24T23:56:31.295Z,100173.25
2022-11-24T23:59:00.471Z,100165.66
